Skip Navigation LinksHome page > Weather > Current weather Skip Navigation Links

Current Weather

Chicago O'Hare Intl, Chicago

For information only: do not use for flight planning or navigation.
Latest weather
Observation time Thursday, October 19, 2017 11:51 PM CDT
Local time Friday, October 20, 2017 12:01 AM CDT
Flight conditions Visual Meteorological Conditions
Winds
Wind direction South (170°)
Wind speed 8 mph
Visibility 10 mi.
Sky condition
Ceiling unlimited
Cloud layer few clouds 25,000 ft.
Temperature 56°F
Dewpoint 38°F
Altimeter 30.15 in.Hg
Derived measurements
Relative humidity 51%
Density altitude 321 ft.
Sea-level pressure 30.14 in.Hg
Remarks
Automated weather observing station with precipitation discriminator.
METAR KORD 200451Z 17007KT 10SM FEW250 13/03 A3015 RMK AO2 SLP208 T01330033

Settings

Location code

InnerDrive.Weather 4.0.6144.1 Release CLR 4.0.30319.36366
Copyright ©2015 Inner Drive Technology. All rights reserved. Portions Copyright ©1986-2015 David Braverman.

Find weather

Site navigation


Skip Navigation Links

Place info

Page info

PayPal - The safer, easier way to pay online!

Return home.

Copyright ©2017 Inner Drive Technology. Purveyors of fine, hand-crafted computer software. Page printed 2017-10-20T05:01:34 UTC.